Time;durP1;ratioP1;P1;durP2;ratioP2;P2;SDS_P1;SDS_P2;PMS_P1;PMS_P2;Temp;Humidity;BMP_temperature;BMP_pressure;BME280_temperature;BME280_humidity;BME280_pressure;Samples;Min_cycle;Max_cycle;Signal;HPM_P1;HPM_P2
2023/12/24 00:01:29;;;;;;;3.45;1.77;;;;;;;15.84;49.95;92569.75;5014826;28;20068;-85
2023/12/24 00:03:54;;;;;;;2.35;1.70;;;;;;;15.85;49.80;92566.50;5027011;28;20435;-85
2023/12/24 00:06:20;;;;;;;2.22;1.63;;;;;;;15.87;50.02;92580.38;5043646;28;20048;-87
2023/12/24 00:08:46;;;;;;;3.42;1.98;;;;;;;15.82;50.23;92561.34;5026794;28;20351;-88
2023/12/24 00:11:11;;;;;;;2.08;1.55;;;;;;;15.91;50.23;92561.72;5028348;28;20041;-84
2023/12/24 00:13:37;;;;;;;3.03;1.92;;;;;;;15.84;49.89;92564.28;5044378;28;20044;-86
2023/12/24 00:16:02;;;;;;;2.67;1.60;;;;;;;15.84;50.13;92580.66;5027239;28;20115;-85
2023/12/24 00:18:28;;;;;;;2.10;1.65;;;;;;;15.76;50.34;92577.78;5019436;28;20474;-86
2023/12/24 00:20:53;;;;;;;2.92;1.80;;;;;;;15.79;50.37;92578.75;4994312;28;20044;-86
2023/12/24 00:23:19;;;;;;;3.17;2.15;;;;;;;15.83;50.05;92588.09;5038869;28;20037;-85
2023/12/24 00:25:44;;;;;;;4.63;1.83;;;;;;;15.82;49.95;92594.78;5024534;28;20037;-85
2023/12/24 00:28:10;;;;;;;2.97;1.67;;;;;;;15.84;49.94;92595.00;5024393;28;20045;-85
2023/12/24 00:30:36;;;;;;;3.15;2.03;;;;;;;15.91;50.11;92601.88;5027925;28;20511;-85
2023/12/24 00:33:01;;;;;;;3.35;1.83;;;;;;;15.79;50.12;92598.56;5043475;28;20762;-88
2023/12/24 00:35:27;;;;;;;4.85;2.20;;;;;;;15.84;49.97;92603.19;5027402;28;20041;-86
2023/12/24 00:37:52;;;;;;;2.83;1.90;;;;;;;15.81;50.44;92603.47;5030285;28;20389;-85
2023/12/24 00:40:18;;;;;;;2.75;1.73;;;;;;;15.81;50.23;92598.03;5022938;28;20034;-85
2023/12/24 00:42:44;;;;;;;3.50;2.08;;;;;;;15.87;49.93;92604.88;5009170;28;20541;-85
2023/12/24 00:45:09;;;;;;;2.38;1.63;;;;;;;15.89;49.97;92613.28;5048603;28;20432;-88
2023/12/24 00:47:35;;;;;;;2.42;1.63;;;;;;;15.97;49.73;92618.91;5002205;28;20068;-86
2023/12/24 00:50:00;;;;;;;2.22;1.60;;;;;;;15.89;50.19;92628.91;4996105;28;20042;-84
2023/12/24 00:52:26;;;;;;;2.53;1.83;;;;;;;15.84;50.05;92624.25;5011856;28;20116;-89
2023/12/24 00:54:51;;;;;;;3.17;2.00;;;;;;;15.87;50.21;92631.41;5015177;28;20572;-87
2023/12/24 00:57:17;;;;;;;2.67;1.70;;;;;;;15.83;50.46;92628.97;5010322;28;20033;-85
2023/12/24 00:59:42;;;;;;;3.22;2.20;;;;;;;15.94;49.73;92626.13;5021598;28;20033;-85
2023/12/24 01:02:08;;;;;;;2.35;1.58;;;;;;;15.86;50.09;92621.75;5012758;28;20122;-85
2023/12/24 01:04:33;;;;;;;2.28;1.75;;;;;;;15.89;49.79;92626.19;5041309;28;20289;-85
2023/12/24 01:06:59;;;;;;;3.67;2.20;;;;;;;15.88;50.28;92641.06;5014173;28;20041;-87
2023/12/24 01:09:25;;;;;;;2.45;1.63;;;;;;;15.96;49.79;92633.78;5032235;28;20135;-89
2023/12/24 01:11:50;;;;;;;3.53;2.08;;;;;;;15.93;50.05;92641.00;5011449;28;20045;-85
2023/12/24 01:14:16;;;;;;;2.85;2.00;;;;;;;15.97;49.60;92629.81;5030432;28;20029;-86
2023/12/24 01:16:41;;;;;;;3.15;1.75;;;;;;;15.87;49.62;92631.41;5020704;28;20030;-89
2023/12/24 01:19:07;;;;;;;3.45;2.08;;;;;;;15.89;49.88;92629.66;5018039;28;20080;-85
2023/12/24 01:21:33;;;;;;;2.00;1.42;;;;;;;15.91;49.75;92616.25;5031842;28;20462;-86
2023/12/24 01:23:59;;;;;;;1.55;1.40;;;;;;;15.91;49.85;92618.22;5033725;28;20144;-87
2023/12/24 01:26:25;;;;;;;3.35;1.80;;;;;;;15.89;50.19;92621.47;5031286;28;20040;-86
2023/12/24 01:28:50;;;;;;;4.18;1.80;;;;;;;15.91;50.09;92620.97;5048281;28;20049;-86
2023/12/24 01:31:16;;;;;;;3.10;1.52;;;;;;;15.93;50.05;92615.72;5013184;28;20034;-86
2023/12/24 01:33:42;;;;;;;3.25;1.88;;;;;;;15.93;50.14;92616.47;5045064;28;20044;-85
2023/12/24 01:36:07;;;;;;;2.50;1.60;;;;;;;15.88;49.95;92625.44;5027036;28;20698;-85
2023/12/24 01:38:33;;;;;;;3.00;1.85;;;;;;;15.87;49.87;92645.78;5012949;28;20539;-85
2023/12/24 01:40:59;;;;;;;3.10;1.77;;;;;;;15.87;50.08;92636.84;5012888;28;20049;-86
2023/12/24 01:43:24;;;;;;;2.45;1.55;;;;;;;15.85;50.16;92636.63;5024947;28;20057;-85
2023/12/24 01:45:49;;;;;;;2.90;1.85;;;;;;;15.90;50.31;92628.41;5025392;28;20068;-87
2023/12/24 01:48:15;;;;;;;2.97;1.63;;;;;;;15.90;49.87;92624.94;5028101;28;20420;-86
2023/12/24 01:50:42;;;;;;;3.03;1.80;;;;;;;15.86;50.14;92627.22;5010579;28;20049;-88
2023/12/24 01:53:07;;;;;;;2.95;1.90;;;;;;;15.85;50.13;92621.00;5008028;28;20033;-88
2023/12/24 01:55:33;;;;;;;2.03;1.50;;;;;;;15.81;50.17;92619.81;5031116;28;20037;-86
2023/12/24 01:57:58;;;;;;;1.90;1.20;;;;;;;15.80;50.37;92623.81;5023955;28;20033;-89
2023/12/24 02:00:24;;;;;;;3.08;1.85;;;;;;;15.82;50.40;92624.03;5011334;28;20060;-85
2023/12/24 02:02:50;;;;;;;2.50;1.83;;;;;;;15.84;50.20;92635.16;5011002;28;20037;-85
2023/12/24 02:05:16;;;;;;;3.15;2.00;;;;;;;15.83;50.36;92625.50;5012261;28;20041;-85
2023/12/24 02:07:41;;;;;;;2.15;1.63;;;;;;;15.84;50.30;92640.59;5048492;28;20386;-85
2023/12/24 02:10:07;;;;;;;3.25;1.80;;;;;;;15.89;50.20;92637.81;5031394;28;20049;-85
2023/12/24 02:12:34;;;;;;;3.25;1.73;;;;;;;15.88;50.00;92649.97;5043005;28;20177;-85
2023/12/24 02:14:59;;;;;;;3.15;1.90;;;;;;;15.92;50.04;92649.69;5017030;28;20060;-87
2023/12/24 02:17:25;;;;;;;3.15;1.90;;;;;;;15.93;49.84;92641.00;5033028;28;20029;-85
2023/12/24 02:19:50;;;;;;;3.35;1.40;;;;;;;15.98;50.19;92645.66;5011102;28;20054;-86
2023/12/24 02:22:16;;;;;;;2.53;1.50;;;;;;;15.93;49.89;92630.09;5024969;28;20566;-86
2023/12/24 02:24:42;;;;;;;2.65;1.67;;;;;;;15.87;50.05;92634.13;5030709;28;20107;-86
2023/12/24 02:27:22;;;;;;;2.90;1.65;;;;;;;15.87;49.96;92640.31;5013725;28;20048;-85
2023/12/24 02:29:48;;;;;;;2.45;1.30;;;;;;;15.83;50.21;92639.88;5001462;28;20044;-85
2023/12/24 02:32:15;;;;;;;3.08;1.80;;;;;;;15.86;50.08;92638.84;5029737;28;20037;-86
2023/12/24 02:34:40;;;;;;;2.95;1.67;;;;;;;15.91;50.09;92635.31;5037400;28;20042;-85
2023/12/24 02:37:05;;;;;;;2.85;1.58;;;;;;;15.91;50.02;92637.31;4993758;28;20281;-85
2023/12/24 02:39:31;;;;;;;2.97;1.95;;;;;;;15.90;49.97;92655.66;5028765;28;20512;-86
2023/12/24 02:41:56;;;;;;;3.38;1.73;;;;;;;15.92;50.09;92631.34;5009093;28;20049;-85
2023/12/24 02:44:22;;;;;;;2.80;1.60;;;;;;;15.91;50.07;92640.78;5015972;28;20056;-85
2023/12/24 02:46:47;;;;;;;2.72;1.92;;;;;;;15.92;49.98;92631.34;5023973;28;20037;-86
2023/12/24 02:49:14;;;;;;;2.60;1.63;;;;;;;15.96;50.06;92633.78;5017260;28;20056;-86
2023/12/24 02:51:40;;;;;;;2.58;1.67;;;;;;;15.92;49.96;92630.63;5012959;28;20136;-86
2023/12/24 02:54:06;;;;;;;3.17;1.67;;;;;;;15.89;50.00;92626.19;5032230;28;20051;-85
2023/12/24 02:56:36;;;;;;;2.05;1.33;;;;;;;15.94;49.66;92619.94;4994397;28;20486;-86
2023/12/24 02:59:03;;;;;;;2.28;1.55;;;;;;;15.94;50.00;92620.69;5032561;28;20432;-86
2023/12/24 03:01:28;;;;;;;2.72;1.80;;;;;;;15.88;50.29;92630.16;5046240;28;20113;-89
2023/12/24 03:03:54;;;;;;;3.25;1.60;;;;;;;15.91;49.82;92634.59;5027112;28;20037;-87
2023/12/24 03:06:19;;;;;;;2.33;1.40;;;;;;;15.88;49.93;92630.91;5009832;28;20491;-85
2023/12/24 03:08:45;;;;;;;4.13;1.70;;;;;;;15.92;49.64;92628.63;5039881;28;20700;-86
2023/12/24 03:11:11;;;;;;;2.30;1.40;;;;;;;15.93;49.71;92627.38;5046415;28;20189;-85
2023/12/24 03:13:37;;;;;;;2.40;1.60;;;;;;;15.90;50.02;92612.03;5026714;28;20550;-86
2023/12/24 03:16:02;;;;;;;3.08;1.83;;;;;;;15.90;49.95;92631.13;5046233;28;20052;-86
2023/12/24 03:18:28;;;;;;;4.97;1.80;;;;;;;15.87;49.88;92631.41;5046548;28;20052;-85
2023/12/24 03:20:53;;;;;;;3.80;1.83;;;;;;;15.86;50.31;92635.38;5060299;28;20099;-86
2023/12/24 03:23:19;;;;;;;2.35;1.67;;;;;;;15.90;50.03;92638.56;5035431;28;20037;-85
2023/12/24 03:25:44;;;;;;;3.25;1.50;;;;;;;15.99;49.85;92652.59;5010268;28;20041;-86
2023/12/24 03:28:10;;;;;;;3.15;1.42;;;;;;;15.97;49.57;92635.28;5028362;28;20091;-86
2023/12/24 03:30:35;;;;;;;2.85;1.77;;;;;;;15.95;49.75;92633.06;5037634;28;20208;-88
2023/12/24 03:33:01;;;;;;;3.13;1.65;;;;;;;16.00;49.79;92654.06;4997427;28;20046;-85
2023/12/24 03:35:26;;;;;;;2.20;1.35;;;;;;;15.98;50.08;92618.41;5035852;28;20548;-88
2023/12/24 03:37:51;;;;;;;1.83;1.25;;;;;;;15.91;50.19;92640.03;4993224;28;20084;-85
2023/12/24 03:40:17;;;;;;;2.45;1.75;;;;;;;15.89;49.97;92646.00;5035261;28;20111;-85
2023/12/24 03:42:42;;;;;;;3.72;1.58;;;;;;;15.88;50.28;92641.78;5040986;28;20053;-86
2023/12/24 03:45:08;;;;;;;4.40;2.03;;;;;;;15.88;50.24;92641.78;5016831;28;20454;-89
2023/12/24 03:47:34;;;;;;;2.97;2.00;;;;;;;15.91;49.96;92621.69;5017562;28;20528;-86
2023/12/24 03:49:59;;;;;;;3.20;1.23;;;;;;;15.86;50.14;92633.41;5016385;28;20454;-86
2023/12/24 03:52:25;;;;;;;3.92;1.83;;;;;;;15.93;49.62;92623.91;5044682;28;20127;-86
2023/12/24 03:54:50;;;;;;;2.63;1.45;;;;;;;15.85;50.30;92628.44;5005264;28;20045;-86
2023/12/24 03:57:16;;;;;;;2.50;2.13;;;;;;;15.88;50.00;92622.72;5045192;28;20111;-85
2023/12/24 03:59:41;;;;;;;2.88;1.38;;;;;;;15.86;50.13;92627.22;5036682;28;20041;-86
2023/12/24 04:02:06;;;;;;;2.05;1.50;;;;;;;15.80;50.08;92629.28;5032574;28;20045;-86
2023/12/24 04:04:32;;;;;;;2.25;1.50;;;;;;;15.84;50.17;92625.00;5019128;28;20486;-85
2023/12/24 04:06:57;;;;;;;2.90;1.80;;;;;;;15.84;50.31;92622.25;5039408;28;20403;-90
2023/12/24 04:09:23;;;;;;;3.28;1.77;;;;;;;15.80;50.00;92630.00;5012046;28;20045;-85
2023/12/24 04:11:49;;;;;;;3.22;1.95;;;;;;;15.83;50.07;92637.13;5028850;28;20045;-88
2023/12/24 04:14:14;;;;;;;2.35;1.45;;;;;;;15.91;50.25;92640.78;5010768;28;20069;-85
2023/12/24 04:16:40;;;;;;;2.55;1.38;;;;;;;15.85;49.80;92658.44;5036832;28;20041;-87
2023/12/24 04:19:05;;;;;;;2.50;1.40;;;;;;;15.83;50.01;92664.38;5028763;28;20041;-86
2023/12/24 04:21:33;;;;;;;2.03;1.40;;;;;;;15.88;50.05;92662.88;5012169;28;20466;-86
2023/12/24 04:23:59;;;;;;;2.70;1.48;;;;;;;15.83;49.95;92675.28;5007751;28;20037;-86
2023/12/24 04:26:24;;;;;;;2.95;1.88;;;;;;;15.92;50.09;92671.50;5023767;28;20056;-85
2023/12/24 04:28:49;;;;;;;2.38;1.52;;;;;;;15.85;50.00;92669.34;5015496;28;20408;-86
2023/12/24 04:31:15;;;;;;;3.78;1.60;;;;;;;15.89;50.03;92673.25;5044401;28;20052;-85
2023/12/24 04:33:40;;;;;;;2.47;1.48;;;;;;;15.94;49.62;92680.63;5015691;28;20202;-86
2023/12/24 04:36:06;;;;;;;2.03;1.20;;;;;;;15.89;49.95;92680.69;5025253;28;20088;-86
2023/12/24 04:38:32;;;;;;;2.42;1.23;;;;;;;15.83;50.16;92656.22;5025028;28;20125;-87
2023/12/24 04:40:57;;;;;;;3.15;1.98;;;;;;;15.93;49.62;92676.44;5008488;28;20079;-86
2023/12/24 04:43:23;;;;;;;1.75;1.13;;;;;;;15.89;50.04;92659.63;5025465;28;20061;-85
2023/12/24 04:45:48;;;;;;;1.45;1.10;;;;;;;15.86;50.24;92662.63;5010372;28;20050;-88
2023/12/24 04:48:14;;;;;;;3.22;1.70;;;;;;;15.85;49.83;92680.22;4996848;28;20120;-88
2023/12/24 04:50:39;;;;;;;2.40;1.63;;;;;;;15.81;50.09;92675.06;5012086;28;20411;-86
2023/12/24 04:53:05;;;;;;;1.80;1.35;;;;;;;15.83;50.08;92677.28;5028199;28;20097;-87
2023/12/24 04:55:30;;;;;;;2.88;1.50;;;;;;;15.95;49.46;92684.09;5011533;28;20411;-86
2023/12/24 04:57:55;;;;;;;2.10;1.35;;;;;;;15.82;49.90;92682.00;5028923;28;20037;-85
2023/12/24 05:00:21;;;;;;;2.40;1.40;;;;;;;15.85;50.10;92697.31;5035986;28;20258;-86
2023/12/24 05:02:47;;;;;;;2.40;1.40;;;;;;;15.87;49.72;92691.38;5011959;28;20598;-87
2023/12/24 05:05:14;;;;;;;1.75;1.23;;;;;;;15.87;49.89;92694.09;5008012;28;20476;-86
2023/12/24 05:07:39;;;;;;;2.35;1.55;;;;;;;15.91;49.70;92694.56;5013434;28;20041;-85
2023/12/24 05:10:05;;;;;;;2.10;1.35;;;;;;;15.94;49.49;92677.91;5011539;28;20238;-90
2023/12/24 05:12:31;;;;;;;2.88;1.33;;;;;;;15.94;49.83;92683.38;5028529;28;20039;-85
2023/12/24 05:14:56;;;;;;;3.00;1.27;;;;;;;15.88;50.17;92693.59;5007976;28;20471;-85
2023/12/24 05:17:22;;;;;;;3.65;1.60;;;;;;;15.90;49.63;92702.00;5014209;28;20056;-85
2023/12/24 05:19:47;;;;;;;2.47;1.30;;;;;;;15.95;49.83;92689.56;5038190;28;20124;-86
2023/12/24 05:22:13;;;;;;;3.15;1.20;;;;;;;15.92;49.99;92694.03;5026443;28;20040;-91
2023/12/24 05:24:38;;;;;;;3.03;1.40;;;;;;;15.90;49.93;92684.91;5025539;28;20037;-85
2023/12/24 05:27:07;;;;;;;2.78;1.58;;;;;;;15.93;49.68;92679.16;5027039;28;20052;-86
2023/12/24 05:29:32;;;;;;;3.38;1.73;;;;;;;15.94;49.89;92680.63;5047907;28;20044;-88
2023/12/24 05:31:58;;;;;;;2.40;1.15;;;;;;;15.88;49.84;92673.75;5022818;28;20552;-86
2023/12/24 05:34:24;;;;;;;2.20;1.23;;;;;;;15.92;49.62;92669.50;5017031;28;20551;-85
2023/12/24 05:36:49;;;;;;;1.67;1.02;;;;;;;15.88;50.07;92668.31;5021019;28;20045;-89
2023/12/24 05:39:15;;;;;;;2.75;1.85;;;;;;;15.96;49.80;92675.41;5020096;28;20510;-90
2023/12/24 05:41:45;;;;;;;2.03;1.05;;;;;;;15.89;49.96;92673.25;5040861;28;20076;-86
2023/12/24 05:44:11;;;;;;;1.92;1.15;;;;;;;15.88;50.07;92681.94;5029829;28;20041;-85
2023/12/24 05:46:36;;;;;;;2.78;1.33;;;;;;;15.93;50.01;92664.78;5031292;28;20059;-85
2023/12/24 05:49:02;;;;;;;2.60;1.08;;;;;;;15.92;50.00;92671.50;5014281;28;20033;-88
2023/12/24 05:51:27;;;;;;;1.48;1.00;;;;;;;15.94;49.76;92669.00;5044160;28;20131;-88
2023/12/24 05:53:52;;;;;;;2.47;1.40;;;;;;;15.85;50.27;92656.44;5028773;28;20744;-85
2023/12/24 05:56:18;;;;;;;3.22;1.58;;;;;;;15.87;49.79;92670.31;5027983;28;20543;-86
2023/12/24 05:58:43;;;;;;;3.25;1.10;;;;;;;15.94;49.73;92666.28;5020851;28;20038;-86
2023/12/24 06:01:09;;;;;;;2.35;1.30;;;;;;;15.97;49.85;92657.81;5028074;28;20396;-86
2023/12/24 06:03:34;;;;;;;5.00;1.67;;;;;;;15.93;49.40;92667.53;5028797;28;20064;-88
2023/12/24 06:06:00;;;;;;;2.67;1.40;;;;;;;15.92;49.63;92682.41;5039474;28;20396;-85
2023/12/24 06:08:26;;;;;;;2.47;1.45;;;;;;;15.99;49.74;92662.75;5017847;28;20265;-86
2023/12/24 06:10:51;;;;;;;1.85;1.30;;;;;;;15.93;49.66;92671.00;5011146;28;20042;-85
2023/12/24 06:13:17;;;;;;;1.45;0.90;;;;;;;15.88;49.83;92679.94;5025880;28;20029;-86
2023/12/24 06:15:42;;;;;;;2.60;1.30;;;;;;;15.93;49.88;92698.25;5027928;28;20128;-86
2023/12/24 06:18:09;;;;;;;1.88;1.23;;;;;;;15.88;50.15;92684.66;5017222;28;20033;-85
2023/12/24 06:20:36;;;;;;;2.90;1.58;;;;;;;15.93;49.41;92679.16;5025597;28;20507;-86
2023/12/24 06:23:02;;;;;;;1.38;1.20;;;;;;;15.91;49.89;92673.47;5023017;28;20137;-86
2023/12/24 06:25:28;;;;;;;2.72;1.50;;;;;;;15.93;49.84;92662.06;5034337;28;20045;-87
2023/12/24 06:27:53;;;;;;;1.77;0.95;;;;;;;15.90;50.02;92680.19;5054004;28;20045;-85
2023/12/24 06:30:19;;;;;;;3.17;1.30;;;;;;;15.96;49.54;92678.16;5037012;28;20051;-86
2023/12/24 06:32:46;;;;;;;1.77;1.00;;;;;;;15.92;50.08;92676.94;5035782;28;20041;-86
2023/12/24 06:35:12;;;;;;;2.05;1.23;;;;;;;15.90;50.00;92684.91;5011648;28;20099;-85
2023/12/24 06:37:37;;;;;;;2.30;1.20;;;;;;;15.89;49.81;92677.97;5014260;28;20045;-85
2023/12/24 06:40:04;;;;;;;1.90;1.10;;;;;;;15.90;49.66;92680.19;5013266;28;20048;-87
2023/12/24 06:42:30;;;;;;;1.90;1.15;;;;;;;15.90;49.46;92693.06;5050509;28;20045;-85
2023/12/24 06:44:55;;;;;;;1.63;1.10;;;;;;;15.94;49.82;92679.91;5046895;28;20064;-85
2023/12/24 06:47:20;;;;;;;2.60;1.20;;;;;;;15.95;49.84;92686.81;5042438;28;20084;-86
2023/12/24 06:49:46;;;;;;;2.33;1.50;;;;;;;15.94;49.84;92685.34;5027420;28;20038;-86
2023/12/24 06:52:11;;;;;;;1.85;0.90;;;;;;;15.91;50.14;92689.84;5031385;28;20041;-87
2023/12/24 06:54:37;;;;;;;1.65;1.05;;;;;;;15.96;49.90;92678.16;5017449;28;20399;-86
2023/12/24 06:57:03;;;;;;;1.58;0.93;;;;;;;15.94;49.97;92688.81;5030021;28;20047;-89
2023/12/24 06:59:29;;;;;;;1.75;1.10;;;;;;;15.92;50.09;92691.31;5019111;28;20041;-85
2023/12/24 07:01:54;;;;;;;1.88;0.98;;;;;;;15.91;50.23;92672.75;5040304;28;20033;-85
2023/12/24 07:04:19;;;;;;;2.92;1.20;;;;;;;15.89;50.46;92670.53;5008640;28;20029;-85
2023/12/24 07:06:45;;;;;;;1.17;0.90;;;;;;;15.89;50.07;92673.25;5029965;28;20693;-85
2023/12/24 07:09:11;;;;;;;2.38;1.63;;;;;;;15.91;50.10;92676.22;5045723;28;20376;-87
2023/12/24 07:11:36;;;;;;;1.60;0.98;;;;;;;15.88;49.81;92677.22;5025683;28;20056;-87
2023/12/24 07:14:01;;;;;;;2.20;1.30;;;;;;;15.87;50.32;92678.47;5038069;28;20045;-86
2023/12/24 07:16:27;;;;;;;1.60;1.13;;;;;;;15.95;49.81;92678.66;5045892;28;20056;-85
2023/12/24 07:18:52;;;;;;;2.80;1.45;;;;;;;15.95;49.84;92675.94;5014639;28;20084;-86
2023/12/24 07:21:18;;;;;;;2.45;1.13;;;;;;;15.92;49.92;92682.41;5011688;28;20384;-85
2023/12/24 07:23:43;;;;;;;2.10;1.25;;;;;;;15.94;49.78;92669.00;5019832;28;20416;-86
2023/12/24 07:26:09;;;;;;;1.92;1.17;;;;;;;15.89;50.26;92681.44;5025667;28;20096;-86
2023/12/24 07:28:34;;;;;;;2.15;1.20;;;;;;;15.90;49.90;92691.09;5029071;28;20040;-85
2023/12/24 07:31:00;;;;;;;2.40;1.25;;;;;;;15.94;49.84;92698.97;5013356;28;20479;-85
2023/12/24 07:33:25;;;;;;;2.30;1.67;;;;;;;15.94;49.96;92701.72;5042538;28;20045;-85
2023/12/24 07:35:51;;;;;;;1.75;0.90;;;;;;;15.88;49.97;92715.38;5021508;28;20094;-86
2023/12/24 07:38:16;;;;;;;1.40;0.88;;;;;;;15.87;50.20;92702.25;5037592;28;20083;-85
2023/12/24 07:40:42;;;;;;;1.67;1.08;;;;;;;15.94;50.01;92707.16;5008142;28;20400;-85
2023/12/24 07:43:07;;;;;;;1.98;1.05;;;;;;;15.89;50.13;92697.78;5043131;28;20110;-87
2023/12/24 07:45:32;;;;;;;1.63;1.13;;;;;;;15.96;49.59;92710.84;5028474;28;20059;-86
2023/12/24 07:47:58;;;;;;;2.28;1.13;;;;;;;15.91;49.61;92700.00;5029601;28;20462;-86
2023/12/24 07:50:23;;;;;;;2.15;1.10;;;;;;;15.91;49.85;92698.00;5024169;28;20519;-85
2023/12/24 07:52:49;;;;;;;2.10;1.33;;;;;;;15.93;49.92;92702.97;5013275;28;20061;-86
2023/12/24 07:55:15;;;;;;;2.67;1.63;;;;;;;15.95;49.62;92720.28;5028523;28;20037;-86
2023/12/24 07:57:40;;;;;;;2.10;0.98;;;;;;;15.94;49.58;92715.34;5049176;28;20041;-85
2023/12/24 08:00:09;;;;;;;1.67;0.98;;;;;;;15.94;50.00;92724.25;5011880;28;20463;-87
2023/12/24 08:02:35;;;;;;;2.15;1.10;;;;;;;16.01;49.63;92715.50;5018072;28;20093;-86
2023/12/24 08:05:00;;;;;;;2.33;1.27;;;;;;;15.94;49.50;92723.50;5033885;28;20045;-87
2023/12/24 08:07:26;;;;;;;2.58;1.30;;;;;;;15.97;49.80;92719.78;5034167;28;20047;-86
2023/12/24 08:09:51;;;;;;;2.90;1.00;;;;;;;15.98;49.58;92723.97;5020687;28;20037;-86
2023/12/24 08:12:17;;;;;;;1.77;1.00;;;;;;;16.00;49.60;92716.03;5025778;28;20068;-86
2023/12/24 08:14:42;;;;;;;2.50;1.13;;;;;;;15.98;49.44;92721.97;5030841;28;20042;-86
2023/12/24 08:17:08;;;;;;;2.78;1.20;;;;;;;15.98;49.92;92719.25;5041681;28;20042;-88
2023/12/24 08:19:33;;;;;;;2.65;1.25;;;;;;;16.01;49.64;92725.69;5029708;28;20122;-85
2023/12/24 08:21:59;;;;;;;1.75;1.00;;;;;;;15.93;49.76;92717.31;5039070;28;20048;-85
2023/12/24 08:24:25;;;;;;;1.95;1.20;;;;;;;15.90;49.91;92728.50;5019930;28;20045;-85
2023/12/24 08:26:51;;;;;;;1.70;1.08;;;;;;;15.88;49.91;92741.91;5038553;28;20033;-88
2023/12/24 08:29:16;;;;;;;3.45;1.23;;;;;;;15.91;50.00;92735.44;4993776;28;20046;-85
2023/12/24 08:31:42;;;;;;;1.83;1.00;;;;;;;15.93;49.81;92730.22;5015647;28;20041;-86
2023/12/24 08:34:07;;;;;;;1.27;0.90;;;;;;;15.90;49.88;92726.50;5032495;28;20396;-86
2023/12/24 08:36:33;;;;;;;1.80;1.27;;;;;;;15.90;49.49;92721.06;5010777;28;20037;-86
2023/12/24 08:38:58;;;;;;;1.83;1.10;;;;;;;15.90;50.11;92698.53;5028858;28;20037;-87
2023/12/24 08:41:24;;;;;;;2.72;1.40;;;;;;;15.90;49.79;92723.06;5049902;28;20052;-85
2023/12/24 08:43:49;;;;;;;1.75;1.00;;;;;;;15.87;50.27;92735.72;5003489;28;20408;-87
2023/12/24 08:46:14;;;;;;;1.48;0.93;;;;;;;15.87;49.98;92734.97;5040466;28;20622;-90
2023/12/24 08:48:40;;;;;;;2.15;1.00;;;;;;;15.89;50.08;92733.22;5012517;28;20768;-85
2023/12/24 08:51:05;;;;;;;2.08;1.02;;;;;;;15.95;49.48;92753.00;5013517;28;20412;-90
2023/12/24 08:53:31;;;;;;;1.85;1.08;;;;;;;15.94;49.98;92761.69;5028473;28;20095;-90
2023/12/24 08:55:56;;;;;;;2.10;1.10;;;;;;;16.03;49.97;92772.22;5009071;28;20034;-86
2023/12/24 08:58:22;;;;;;;1.00;0.70;;;;;;;15.97;49.94;92771.56;5016215;28;20526;-87
2023/12/24 09:00:47;;;;;;;45.55;35.53;;;;;;;16.07;49.75;92772.69;5023393;28;20044;-87
2023/12/24 09:03:13;;;;;;;49.85;36.08;;;;;;;16.07;49.40;92767.22;5028407;28;20045;-87
2023/12/24 09:05:38;;;;;;;6.00;4.72;;;;;;;16.06;49.76;92760.31;5031423;28;20041;-86
2023/12/24 09:08:04;;;;;;;3.80;1.90;;;;;;;15.98;49.86;92762.13;5040869;28;20042;-87
2023/12/24 09:10:31;;;;;;;6.95;4.32;;;;;;;15.99;49.92;92772.53;5038871;28;20041;-86
2023/12/24 09:12:57;;;;;;;4.75;2.88;;;;;;;15.95;49.63;92769.34;5024139;28;20044;-87
2023/12/24 09:15:22;;;;;;;3.88;2.10;;;;;;;16.06;49.20;92771.22;5060075;28;20130;-86
2023/12/24 09:17:48;;;;;;;14.38;9.30;;;;;;;15.93;49.83;92780.00;5034433;28;20111;-87
2023/12/24 09:20:13;;;;;;;6.25;3.28;;;;;;;16.03;49.87;92780.41;5029539;28;20111;-87
2023/12/24 09:22:39;;;;;;;6.82;4.65;;;;;;;15.98;49.92;92784.69;5039578;28;20048;-86
2023/12/24 09:25:05;;;;;;;7.10;3.90;;;;;;;16.00;49.32;92801.28;5043997;28;20048;-86
2023/12/24 09:27:30;;;;;;;6.30;3.80;;;;;;;16.02;49.49;92792.59;5026684;28;20069;-86
2023/12/24 09:29:56;;;;;;;5.05;2.90;;;;;;;15.96;49.47;92789.91;5023372;28;20527;-87
2023/12/24 09:32:21;;;;;;;4.20;2.80;;;;;;;15.94;49.98;92800.56;5009601;28;20029;-87
2023/12/24 09:34:47;;;;;;;4.88;3.10;;;;;;;15.99;49.86;92796.31;5010019;28;20049;-86
2023/12/24 09:37:12;;;;;;;4.28;2.83;;;;;;;15.96;49.81;92795.34;4971422;28;20200;-87
2023/12/24 09:39:38;;;;;;;25.88;4.93;;;;;;;15.85;49.62;92803.63;4998789;28;20080;-86
2023/12/24 09:42:04;;;;;;;33.40;5.15;;;;;;;15.83;49.41;92794.47;4989442;28;20488;-86
2023/12/24 09:44:34;;;;;;;11.48;3.22;;;;;;;15.84;47.73;92798.66;4993507;28;20046;-86
2023/12/24 09:46:59;;;;;;;10.63;2.75;;;;;;;15.78;48.03;92793.28;4983164;28;20049;-86
2023/12/24 09:49:25;;;;;;;8.57;3.00;;;;;;;15.80;48.07;92787.34;4988818;28;20049;-87
2023/12/24 09:51:50;;;;;;;8.90;3.47;;;;;;;15.86;48.30;92788.75;5002031;28;20482;-88
2023/12/24 09:54:16;;;;;;;11.65;3.97;;;;;;;15.84;48.08;92785.03;4976779;28;20124;-87
2023/12/24 09:56:42;;;;;;;4.43;3.28;;;;;;;15.83;48.86;92776.13;4980265;28;20589;-86
2023/12/24 09:59:08;;;;;;;9.00;3.35;;;;;;;15.85;49.14;92779.09;4994307;28;20057;-86
2023/12/24 10:01:43;;;;;;;6.55;2.97;;;;;;;15.88;48.62;92763.72;4989391;28;20099;-87
2023/12/24 10:04:11;;;;;;;7.15;3.63;;;;;;;15.84;48.85;92763.97;4991002;28;20061;-88
2023/12/24 10:06:58;;;;;;;10.10;3.72;;;;;;;15.86;48.85;92769.66;5014147;28;20049;-88
2023/12/24 10:09:46;;;;;;;5.25;3.47;;;;;;;15.85;49.32;92757.28;5014839;28;20487;-88
2023/12/24 10:12:12;;;;;;;7.15;3.90;;;;;;;15.84;48.93;92771.41;5047530;28;20102;-87
2023/12/24 10:14:39;;;;;;;8.57;3.38;;;;;;;15.91;48.82;92755.25;5024474;28;20536;-87
2023/12/24 10:17:05;;;;;;;6.70;3.03;;;;;;;15.94;48.60;92754.22;5010033;28;20568;-87
2023/12/24 10:19:34;;;;;;;17.25;3.90;;;;;;;15.86;48.86;92755.28;5053904;28;20123;-87
2023/12/24 10:22:06;;;;;;;8.70;3.30;;;;;;;15.89;48.63;92738.66;5044005;28;20033;-87
2023/12/24 10:24:34;;;;;;;10.13;3.42;;;;;;;15.93;48.72;92733.69;5050152;28;20120;-88
2023/12/24 10:27:05;;;;;;;6.97;3.20;;;;;;;15.86;48.61;92744.41;5032030;28;20090;-86
2023/12/24 10:29:31;;;;;;;;;;;;;;;15.87;48.93;92752.06;5021631;28;20045;-88
2023/12/24 10:31:57;;;;;;;11.25;3.17;;;;;;;15.86;48.69;92742.41;5043444;28;19924;-87
2023/12/24 10:34:23;;;;;;;11.15;4.00;;;;;;;15.88;48.83;92748.09;5022706;28;20519;-89
2023/12/24 10:36:49;;;;;;;12.30;3.10;;;;;;;15.89;48.70;92735.19;5019356;28;20045;-87
2023/12/24 10:39:27;;;;;;;7.72;3.70;;;;;;;15.87;48.74;92737.69;5004142;28;20030;-90
2023/12/24 10:41:54;;;;;;;9.15;3.83;;;;;;;15.85;48.92;92740.19;5015921;28;20037;-87
2023/12/24 10:44:21;;;;;;;5.78;3.38;;;;;;;15.88;48.76;92729.00;5028549;28;20037;-88
2023/12/24 10:46:47;;;;;;;9.05;5.55;;;;;;;15.91;48.69;92741.63;5033874;28;20123;-86
2023/12/24 10:49:13;;;;;;;7.82;5.03;;;;;;;15.92;48.55;92732.19;5033289;28;20103;-87
2023/12/24 10:51:39;;;;;;;8.88;4.22;;;;;;;15.96;48.74;92723.75;5006442;28;20045;-87
2023/12/24 10:54:08;;;;;;;5.20;3.53;;;;;;;15.95;48.67;92723.00;4999101;28;20040;-87
2023/12/24 10:56:39;;;;;;;7.97;4.07;;;;;;;15.96;48.65;92718.28;5004880;28;20049;-89
2023/12/24 10:59:11;;;;;;;7.47;3.60;;;;;;;15.96;48.49;92716.31;5042150;28;20350;-87
2023/12/24 11:01:38;;;;;;;8.30;3.67;;;;;;;15.99;48.31;92709.84;5025984;28;20051;-88
2023/12/24 11:04:03;;;;;;;9.95;3.50;;;;;;;15.93;48.54;92708.41;5018019;28;20041;-88
2023/12/24 11:06:38;;;;;;;5.47;2.97;;;;;;;15.93;48.56;92709.16;5026313;28;20088;-88
2023/12/24 11:09:11;;;;;;;10.05;3.53;;;;;;;15.87;49.14;92692.09;5035291;28;20053;-87
2023/12/24 11:11:55;;;;;;;6.53;3.67;;;;;;;15.88;48.66;92692.84;5014327;28;20040;-88
2023/12/24 11:14:41;;;;;;;10.00;3.50;;;;;;;15.92;48.54;92694.03;5039927;28;20614;-87
2023/12/24 11:17:08;;;;;;;3.83;3.03;;;;;;;15.88;48.50;92681.94;5042998;28;20072;-87
2023/12/24 11:19:37;;;;;;;6.43;3.67;;;;;;;15.92;48.87;92674.97;5022604;28;20040;-87
2023/12/24 11:22:10;;;;;;;7.93;3.55;;;;;;;15.92;48.69;92674.97;5028210;28;20029;-86
2023/12/24 11:24:42;;;;;;;8.63;3.60;;;;;;;15.92;48.34;92687.84;5030566;28;20503;-87
2023/12/24 11:27:08;;;;;;;8.57;3.13;;;;;;;15.87;48.59;92667.56;5025937;28;20036;-88
2023/12/24 11:29:49;;;;;;;7.03;3.55;;;;;;;15.84;48.98;92670.59;5029105;28;20075;-87